CheckWX is a tool to help pilots better visualize weather data.  It is not intended as a substitute for an official pre-flight weather briefing.

10:07:26 UTC

UBBB TAF
Heydar Aliyev International Airport
Baku, Azerbaijan
TAF UBBB 260525Z 2606/2706 36018G28KT CAVOK TX34/2610Z TN20/2702Z TEMPO 2606/2612 02016KT SCT030 BECMG 2614/2616 36024G34KT SCT030CB BKN030 PROB40 2616/2706 -TSRA BKN040CB

Jun-26@
06:00 UTC

Jun-26 @ 06:00 UTC

Jun-26@
14:00 UTC

Jun-26 @ 14:00 UTC

TAF UBBB 260525Z 2606/2706 36018G28KT CAVOK TX34/2610Z TN20/2702Z
Wind
  • 360° at 18 KTS
  • {Gusting to 28 KTS
Cloud Levels
  • No significant clouds

Jun-26@
06:00 UTC

Jun-26 @ 06:00 UTC

Jun-26@
12:00 UTC

Jun-26 @ 12:00 UTC

TEMPO 2606/2612 02016KT SCT030

Temporary

Temporary Changes expected for less than half the time period

Wind
  • 020° at 16 KTS
Cloud Levels
  • Scattered at 3,000' AGL

Jun-26@
14:00 UTC

Jun-26 @ 14:00 UTC

Jun-27@
06:00 UTC

Jun-27 @ 06:00 UTC

BECMG 2614/2616 36024G34KT SCT030CB BKN030

Becoming

Becoming Conditions expected by Wed, Jun 26, 2019 @ 16:00 UTC

Wind
  • 360° at 24 KTS
  • {Gusting to 34 KTS
Cloud Levels
  • Scattered at 3,000' AGL
  • Broken at 3,000' AGL

Jun-26@
16:00 UTC

Jun-26 @ 16:00 UTC

Jun-27@
06:00 UTC

Jun-27 @ 06:00 UTC

PROB40 2616/2706 -TSRA BKN040CB

Probable - 40% Likelihood

Probable - 40% Likelihood during this time.

Conditions
Light Thunderstorm, Light Rain
Cloud Levels
  • Broken at 4,000' AGL